sensor_id;sensor_type;location;lat;lon;timestamp;pressure;altitude;pressure_sealevel;temperature;humidity
41312;BME280;27061;41.648;24.568;2023-01-29T00:01:56;85478.47;;;0.45;74.83
41312;BME280;27061;41.648;24.568;2023-01-29T00:04:23;85478.78;;;0.21;75.73
41312;BME280;27061;41.648;24.568;2023-01-29T00:06:50;85450.03;;;0.10;75.81
41312;BME280;27061;41.648;24.568;2023-01-29T00:09:17;85512.03;;;0.57;74.68
41312;BME280;27061;41.648;24.568;2023-01-29T00:11:45;85513.41;;;0.58;74.31
41312;BME280;27061;41.648;24.568;2023-01-29T00:14:12;85491.38;;;0.42;74.95
41312;BME280;27061;41.648;24.568;2023-01-29T00:16:39;85517.53;;;0.59;75.25
41312;BME280;27061;41.648;24.568;2023-01-29T00:19:06;85515.41;;;0.56;74.75
41312;BME280;27061;41.648;24.568;2023-01-29T00:21:33;85516.06;;;0.52;74.10
41312;BME280;27061;41.648;24.568;2023-01-29T00:24:01;85512.81;;;0.22;75.09
41312;BME280;27061;41.648;24.568;2023-01-29T00:26:28;85470.59;;;0.19;73.23
41312;BME280;27061;41.648;24.568;2023-01-29T00:28:55;85513.66;;;0.32;75.16
41312;BME280;27061;41.648;24.568;2023-01-29T00:31:28;85517.97;;;0.46;74.89
41312;BME280;27061;41.648;24.568;2023-01-29T00:33:56;85499.13;;;0.16;75.77
41312;BME280;27061;41.648;24.568;2023-01-29T00:36:24;85473.06;;;0.05;75.50
41312;BME280;27061;41.648;24.568;2023-01-29T00:38:56;85475.25;;;0.14;74.38
41312;BME280;27061;41.648;24.568;2023-01-29T00:41:30;85507.72;;;0.42;74.86
41312;BME280;27061;41.648;24.568;2023-01-29T00:44:16;85509.66;;;0.35;75.95
41312;BME280;27061;41.648;24.568;2023-01-29T00:47:02;85513.50;;;0.22;76.16
41312;BME280;27061;41.648;24.568;2023-01-29T00:49:30;85518.53;;;0.38;77.25
41312;BME280;27061;41.648;24.568;2023-01-29T00:51:57;85517.28;;;0.45;77.36
41312;BME280;27061;41.648;24.568;2023-01-29T00:54:43;85517.38;;;0.49;77.16
41312;BME280;27061;41.648;24.568;2023-01-29T00:57:10;85463.81;;;0.22;77.65
41312;BME280;27061;41.648;24.568;2023-01-29T00:59:36;85459.63;;;0.15;78.09
41312;BME280;27061;41.648;24.568;2023-01-29T01:02:03;85422.56;;;-0.05;77.73
41312;BME280;27061;41.648;24.568;2023-01-29T01:04:49;85458.38;;;0.22;77.21
41312;BME280;27061;41.648;24.568;2023-01-29T01:07:16;85450.16;;;0.18;77.25
41312;BME280;27061;41.648;24.568;2023-01-29T01:09:43;85478.44;;;0.41;76.89
41312;BME280;27061;41.648;24.568;2023-01-29T01:12:29;85494.31;;;0.56;77.54
41312;BME280;27061;41.648;24.568;2023-01-29T01:14:56;85488.94;;;0.60;77.79
41312;BME280;27061;41.648;24.568;2023-01-29T01:17:24;85484.88;;;0.61;78.31
41312;BME280;27061;41.648;24.568;2023-01-29T01:19:51;85510.41;;;0.84;79.12
41312;BME280;27061;41.648;24.568;2023-01-29T01:22:18;85457.44;;;0.49;78.96
41312;BME280;27061;41.648;24.568;2023-01-29T01:24:45;85472.53;;;0.56;78.77
41312;BME280;27061;41.648;24.568;2023-01-29T01:27:12;85506.28;;;0.81;78.88
41312;BME280;27061;41.648;24.568;2023-01-29T01:29:39;85487.84;;;0.80;78.93
41312;BME280;27061;41.648;24.568;2023-01-29T01:32:06;85517.47;;;1.01;77.26
41312;BME280;27061;41.648;24.568;2023-01-29T01:34:33;85510.03;;;1.08;75.70
41312;BME280;27061;41.648;24.568;2023-01-29T01:37:01;85504.44;;;0.98;76.56
41312;BME280;27061;41.648;24.568;2023-01-29T01:39:28;85481.59;;;0.71;75.75
41312;BME280;27061;41.648;24.568;2023-01-29T01:41:55;85504.44;;;0.98;73.11
41312;BME280;27061;41.648;24.568;2023-01-29T01:47:42;85505.78;;;0.95;75.14
41312;BME280;27061;41.648;24.568;2023-01-29T01:50:34;85494.06;;;0.84;72.70
41312;BME280;27061;41.648;24.568;2023-01-29T01:53:08;85511.13;;;0.89;73.39
41312;BME280;27061;41.648;24.568;2023-01-29T01:55:42;85493.38;;;0.84;72.42
41312;BME280;27061;41.648;24.568;2023-01-29T01:58:56;85483.75;;;0.79;72.73
41312;BME280;27061;41.648;24.568;2023-01-29T02:01:06;85497.44;;;0.83;74.35
41312;BME280;27061;41.648;24.568;2023-01-29T02:03:40;85502.28;;;0.88;74.29
41312;BME280;27061;41.648;24.568;2023-01-29T02:06:27;85489.84;;;0.77;73.15
41312;BME280;27061;41.648;24.568;2023-01-29T02:09:23;85501.59;;;0.88;74.65
41312;BME280;27061;41.648;24.568;2023-01-29T02:12:07;85441.00;;;0.41;76.08
41312;BME280;27061;41.648;24.568;2023-01-29T02:14:36;85452.78;;;0.58;77.24
41312;BME280;27061;41.648;24.568;2023-01-29T02:17:07;85495.53;;;0.93;77.41
41312;BME280;27061;41.648;24.568;2023-01-29T02:19:49;85494.06;;;0.84;75.30
41312;BME280;27061;41.648;24.568;2023-01-29T02:31:10;85505.81;;;0.97;72.72
41312;BME280;27061;41.648;24.568;2023-01-29T02:39:08;85512.59;;;0.94;75.31
41312;BME280;27061;41.648;24.568;2023-01-29T02:41:48;85446.53;;;0.49;76.50
41312;BME280;27061;41.648;24.568;2023-01-29T02:45:15;85504.38;;;0.92;76.16
41312;BME280;27061;41.648;24.568;2023-01-29T02:50:31;85507.91;;;1.00;77.02
41312;BME280;27061;41.648;24.568;2023-01-29T02:53:03;85518.84;;;1.02;77.85
41312;BME280;27061;41.648;24.568;2023-01-29T02:55:52;85514.81;;;1.05;77.38
41312;BME280;27061;41.648;24.568;2023-01-29T02:58:30;85489.34;;;0.89;75.86
41312;BME280;27061;41.648;24.568;2023-01-29T03:01:10;85520.94;;;1.08;75.66
41312;BME280;27061;41.648;24.568;2023-01-29T03:03:41;85519.56;;;1.07;76.61
41312;BME280;27061;41.648;24.568;2023-01-29T03:06:23;85468.63;;;0.69;76.95
41312;BME280;27061;41.648;24.568;2023-01-29T03:09:03;85525.13;;;1.13;76.83
41312;BME280;27061;41.648;24.568;2023-01-29T03:11:41;85524.41;;;1.10;76.62
41312;BME280;27061;41.648;24.568;2023-01-29T03:14:31;85505.75;;;0.93;76.13
41312;BME280;27061;41.648;24.568;2023-01-29T03:17:23;85507.16;;;0.96;76.19
41312;BME280;27061;41.648;24.568;2023-01-29T03:19:53;85514.16;;;1.09;73.42
41312;BME280;27061;41.648;24.568;2023-01-29T03:22:21;85525.22;;;1.21;74.14
41312;BME280;27061;41.648;24.568;2023-01-29T03:24:57;85528.53;;;1.14;73.43
41312;BME280;27061;41.648;24.568;2023-01-29T03:27:52;85529.84;;;1.10;73.31
41312;BME280;27061;41.648;24.568;2023-01-29T03:30:49;85516.84;;;1.07;73.66
41312;BME280;27061;41.648;24.568;2023-01-29T03:33:47;85525.13;;;1.13;74.12
41312;BME280;27061;41.648;24.568;2023-01-29T03:36:40;85507.16;;;0.96;74.83
41312;BME280;27061;41.648;24.568;2023-01-29T03:39:12;85460.50;;;0.71;75.31
41312;BME280;27061;41.648;24.568;2023-01-29T03:41:53;85519.69;;;1.15;75.78
41312;BME280;27061;41.648;24.568;2023-01-29T03:47:26;85523.13;;;1.16;74.19
41312;BME280;27061;41.648;24.568;2023-01-29T04:03:51;85504.97;;;0.84;74.74
41312;BME280;27061;41.648;24.568;2023-01-29T04:06:26;85533.75;;;0.97;75.40
41312;BME280;27061;41.648;24.568;2023-01-29T04:09:16;85537.19;;;1.00;76.39
41312;BME280;27061;41.648;24.568;2023-01-29T04:11:55;85440.88;;;0.35;77.08
41312;BME280;27061;41.648;24.568;2023-01-29T04:14:24;85526.19;;;0.92;77.95
41312;BME280;27061;41.648;24.568;2023-01-29T04:16:54;85541.97;;;0.99;78.55
41312;BME280;27061;41.648;24.568;2023-01-29T04:19:32;85539.94;;;1.00;79.11
41312;BME280;27061;41.648;24.568;2023-01-29T04:22:14;85544.09;;;1.05;79.17
41312;BME280;27061;41.648;24.568;2023-01-29T04:24:43;85544.13;;;1.09;79.34
41312;BME280;27061;41.648;24.568;2023-01-29T04:27:27;85538.75;;;1.13;79.20
41312;BME280;27061;41.648;24.568;2023-01-29T04:30:22;85541.44;;;1.11;79.15
41312;BME280;27061;41.648;24.568;2023-01-29T04:41:30;85556.53;;;1.18;78.84
41312;BME280;27061;41.648;24.568;2023-01-29T04:54:54;85567.31;;;1.10;79.46
41312;BME280;27061;41.648;24.568;2023-01-29T04:57:35;85568.09;;;1.15;79.34
41312;BME280;27061;41.648;24.568;2023-01-29T05:00:09;85568.78;;;1.15;78.35
41312;BME280;27061;41.648;24.568;2023-01-29T05:02:40;85487.44;;;0.53;78.23
41312;BME280;27061;41.648;24.568;2023-01-29T05:05:09;85572.28;;;1.22;77.34
41312;BME280;27061;41.648;24.568;2023-01-29T05:07:41;85567.31;;;1.10;77.29
41312;BME280;27061;41.648;24.568;2023-01-29T05:10:09;85579.03;;;1.19;76.95
41312;BME280;27061;41.648;24.568;2023-01-29T05:12:38;85546.84;;;1.07;73.27
41312;BME280;27061;41.648;24.568;2023-01-29T05:15:14;85536.06;;;0.69;72.58
41312;BME280;27061;41.648;24.568;2023-01-29T05:17:42;85569.78;;;0.92;72.85
41312;BME280;27061;41.648;24.568;2023-01-29T05:20:10;85567.84;;;0.98;71.08
41312;BME280;27061;41.648;24.568;2023-01-29T05:22:39;85594.50;;;1.04;72.27
41312;BME280;27061;41.648;24.568;2023-01-29T05:25:21;85590.41;;;1.03;73.01
41312;BME280;27061;41.648;24.568;2023-01-29T05:27:50;85544.75;;;0.59;72.04
41312;BME280;27061;41.648;24.568;2023-01-29T05:30:36;85581.88;;;0.81;72.62
41312;BME280;27061;41.648;24.568;2023-01-29T05:33:08;85593.03;;;0.97;71.93
41312;BME280;27061;41.648;24.568;2023-01-29T05:35:37;85553.50;;;0.54;72.99
41312;BME280;27061;41.648;24.568;2023-01-29T05:38:04;85528.06;;;0.37;72.44
41312;BME280;27061;41.648;24.568;2023-01-29T05:40:31;85559.66;;;0.54;73.38
41312;BME280;27061;41.648;24.568;2023-01-29T05:42:58;85547.28;;;0.47;74.07
41312;BME280;27061;41.648;24.568;2023-01-29T05:45:25;85593.97;;;0.69;72.20
41312;BME280;27061;41.648;24.568;2023-01-29T05:47:57;85603.69;;;0.81;73.28
41312;BME280;27061;41.648;24.568;2023-01-29T05:50:25;85602.25;;;0.78;73.64
41312;BME280;27061;41.648;24.568;2023-01-29T05:52:59;85596.75;;;0.73;72.46
41312;BME280;27061;41.648;24.568;2023-01-29T05:55:27;85609.13;;;0.81;73.28
41312;BME280;27061;41.648;24.568;2023-01-29T05:57:57;85570.50;;;0.50;73.77
41312;BME280;27061;41.648;24.568;2023-01-29T06:00:25;85580.72;;;0.52;75.18
41312;BME280;27061;41.648;24.568;2023-01-29T06:02:52;85573.91;;;0.51;75.92
41312;BME280;27061;41.648;24.568;2023-01-29T06:05:19;85576.59;;;0.49;71.89
41312;BME280;27061;41.648;24.568;2023-01-29T06:07:46;85618.69;;;0.82;73.34
41312;BME280;27061;41.648;24.568;2023-01-29T06:10:15;85630.25;;;0.80;74.89
41312;BME280;27061;41.648;24.568;2023-01-29T06:12:44;85593.75;;;0.57;75.37
41312;BME280;27061;41.648;24.568;2023-01-29T06:15:11;85564.53;;;0.20;74.10
41312;BME280;27061;41.648;24.568;2023-01-29T06:17:41;85644.53;;;0.79;74.45
41312;BME280;27061;41.648;24.568;2023-01-29T06:20:09;85603.13;;;0.48;71.79
41312;BME280;27061;41.648;24.568;2023-01-29T06:22:36;85636.25;;;0.72;70.83
41312;BME280;27061;41.648;24.568;2023-01-29T06:25:03;85589.34;;;0.38;71.97
41312;BME280;27061;41.648;24.568;2023-01-29T06:27:31;85597.72;;;0.50;73.58
41312;BME280;27061;41.648;24.568;2023-01-29T06:29:58;85592.06;;;0.38;72.85
41312;BME280;27061;41.648;24.568;2023-01-29T06:32:27;85596.19;;;0.39;74.16
41312;BME280;27061;41.648;24.568;2023-01-29T06:34:54;85621.81;;;0.66;73.87
41312;BME280;27061;41.648;24.568;2023-01-29T06:37:21;85646.66;;;0.84;73.54
41312;BME280;27061;41.648;24.568;2023-01-29T06:39:48;85612.78;;;0.55;72.15
41312;BME280;27061;41.648;24.568;2023-01-29T06:42:16;85644.63;;;0.85;71.35
41312;BME280;27061;41.648;24.568;2023-01-29T06:44:43;85565.13;;;0.16;71.72
41312;BME280;27061;41.648;24.568;2023-01-29T06:47:10;85641.69;;;0.72;72.99
41312;BME280;27061;41.648;24.568;2023-01-29T06:49:37;85654.16;;;0.84;73.02
41312;BME280;27061;41.648;24.568;2023-01-29T06:52:04;85662.34;;;0.86;73.36
41312;BME280;27061;41.648;24.568;2023-01-29T06:54:31;85666.53;;;0.91;73.52
41312;BME280;27061;41.648;24.568;2023-01-29T06:56:58;85648.69;;;0.84;74.25
41312;BME280;27061;41.648;24.568;2023-01-29T06:59:25;85590.59;;;0.31;74.52
41312;BME280;27061;41.648;24.568;2023-01-29T07:01:52;85623.00;;;0.55;72.63
41312;BME280;27061;41.648;24.568;2023-01-29T07:04:19;85671.41;;;0.98;72.37
41312;BME280;27061;41.648;24.568;2023-01-29T07:06:46;85633.38;;;0.64;72.99
41312;BME280;27061;41.648;24.568;2023-01-29T07:09:13;85620.69;;;0.39;72.79
41312;BME280;27061;41.648;24.568;2023-01-29T07:11:40;85678.09;;;0.89;69.57
41312;BME280;27061;41.648;24.568;2023-01-29T07:14:07;85653.22;;;0.69;69.44
41312;BME280;27061;41.648;24.568;2023-01-29T07:16:34;85673.91;;;0.84;70.43
41312;BME280;27061;41.648;24.568;2023-01-29T07:19:01;85645.19;;;0.39;70.97
41312;BME280;27061;41.648;24.568;2023-01-29T07:21:28;85675.56;;;0.61;70.52
41312;BME280;27061;41.648;24.568;2023-01-29T07:23:56;85679.69;;;0.64;73.21
41312;BME280;27061;41.648;24.568;2023-01-29T07:26:23;85650.75;;;0.45;73.33
41312;BME280;27061;41.648;24.568;2023-01-29T07:28:50;85683.91;;;0.71;74.56
41312;BME280;27061;41.648;24.568;2023-01-29T07:31:17;85685.22;;;0.68;72.04
41312;BME280;27061;41.648;24.568;2023-01-29T07:33:44;85631.53;;;0.37;72.71
41312;BME280;27061;41.648;24.568;2023-01-29T07:36:12;85696.25;;;0.77;74.26
41312;BME280;27061;41.648;24.568;2023-01-29T07:38:39;85661.44;;;0.71;74.52
41312;BME280;27061;41.648;24.568;2023-01-29T07:41:08;85655.22;;;0.66;74.71
41312;BME280;27061;41.648;24.568;2023-01-29T07:43:35;85690.06;;;0.72;73.27
41312;BME280;27061;41.648;24.568;2023-01-29T07:46:03;85642.50;;;0.41;70.96
41312;BME280;27061;41.648;24.568;2023-01-29T07:48:31;85651.00;;;0.59;71.12
41312;BME280;27061;41.648;24.568;2023-01-29T07:50:58;85686.69;;;0.76;69.42
41312;BME280;27061;41.648;24.568;2023-01-29T07:53:26;85677.00;;;0.66;71.90
41312;BME280;27061;41.648;24.568;2023-01-29T07:55:53;85669.28;;;0.53;73.34
41312;BME280;27061;41.648;24.568;2023-01-29T07:58:21;85688.72;;;0.75;73.05
41312;BME280;27061;41.648;24.568;2023-01-29T08:00:48;85660.28;;;0.46;73.76
41312;BME280;27061;41.648;24.568;2023-01-29T08:03:17;85667.31;;;0.57;74.08
41312;BME280;27061;41.648;24.568;2023-01-29T08:05:45;85643.81;;;0.38;74.34
41312;BME280;27061;41.648;24.568;2023-01-29T08:08:13;85645.25;;;0.43;74.93
41312;BME280;27061;41.648;24.568;2023-01-29T08:10:40;85691.63;;;0.85;74.52
41312;BME280;27061;41.648;24.568;2023-01-29T08:13:08;85664.72;;;0.65;74.53
41312;BME280;27061;41.648;24.568;2023-01-29T08:15:35;85662.78;;;0.70;69.93
41312;BME280;27061;41.648;24.568;2023-01-29T08:18:04;85700.34;;;0.78;72.22
41312;BME280;27061;41.648;24.568;2023-01-29T08:20:32;85679.75;;;0.68;74.32
41312;BME280;27061;41.648;24.568;2023-01-29T08:23:04;85679.28;;;0.80;75.26
41312;BME280;27061;41.648;24.568;2023-01-29T08:25:32;85659.13;;;0.57;75.73
41312;BME280;27061;41.648;24.568;2023-01-29T08:28:00;85685.56;;;0.89;75.48
41312;BME280;27061;41.648;24.568;2023-01-29T08:30:29;85712.53;;;1.10;75.60
41312;BME280;27061;41.648;24.568;2023-01-29T08:32:57;85670.47;;;0.82;75.20
41312;BME280;27061;41.648;24.568;2023-01-29T08:35:24;85682.28;;;0.94;74.45
41312;BME280;27061;41.648;24.568;2023-01-29T08:37:56;85689.28;;;1.07;74.01
41312;BME280;27061;41.648;24.568;2023-01-29T08:40:26;85695.41;;;1.06;73.12
41312;BME280;27061;41.648;24.568;2023-01-29T08:43:00;85726.53;;;1.33;71.46
41312;BME280;27061;41.648;24.568;2023-01-29T08:45:32;85679.03;;;1.04;73.34
41312;BME280;27061;41.648;24.568;2023-01-29T08:48:00;85652.88;;;0.89;74.10
41312;BME280;27061;41.648;24.568;2023-01-29T08:50:27;85717.13;;;1.42;74.03
41312;BME280;27061;41.648;24.568;2023-01-29T08:52:57;85675.81;;;1.18;73.85
41312;BME280;27061;41.648;24.568;2023-01-29T08:55:25;85681.34;;;1.22;72.85
41312;BME280;27061;41.648;24.568;2023-01-29T08:57:53;85724.75;;;1.50;68.98
41312;BME280;27061;41.648;24.568;2023-01-29T09:00:20;85729.50;;;1.47;70.28
41312;BME280;27061;41.648;24.568;2023-01-29T09:02:47;85721.81;;;1.35;69.36
41312;BME280;27061;41.648;24.568;2023-01-29T09:05:14;85738.09;;;1.31;70.17
41312;BME280;27061;41.648;24.568;2023-01-29T09:07:42;85735.53;;;1.41;71.47
41312;BME280;27061;41.648;24.568;2023-01-29T09:10:11;85682.97;;;0.95;69.25
41312;BME280;27061;41.648;24.568;2023-01-29T09:12:38;85722.97;;;1.24;70.23
41312;BME280;27061;41.648;24.568;2023-01-29T09:15:05;85733.41;;;1.38;67.72
41312;BME280;27061;41.648;24.568;2023-01-29T09:17:32;85726.25;;;1.17;68.80
41312;BME280;27061;41.648;24.568;2023-01-29T09:19:59;85733.94;;;1.26;70.46
41312;BME280;27061;41.648;24.568;2023-01-29T09:22:27;85666.41;;;0.83;72.08
41312;BME280;27061;41.648;24.568;2023-01-29T09:24:54;85681.03;;;1.01;72.48
41312;BME280;27061;41.648;24.568;2023-01-29T09:27:21;85708.66;;;1.24;72.49
41312;BME280;27061;41.648;24.568;2023-01-29T09:29:49;85663.69;;;0.83;71.94
41312;BME280;27061;41.648;24.568;2023-01-29T09:32:16;85702.22;;;1.05;71.32
41312;BME280;27061;41.648;24.568;2023-01-29T09:35:04;85681.22;;;1.14;68.80
41312;BME280;27061;41.648;24.568;2023-01-29T09:37:31;85718.88;;;1.23;71.27
41312;BME280;27061;41.648;24.568;2023-01-29T09:39:58;85685.94;;;1.11;69.93
41312;BME280;27061;41.648;24.568;2023-01-29T09:42:47;85703.72;;;1.14;70.05
41312;BME280;27061;41.648;24.568;2023-01-29T09:45:24;85707.84;;;1.17;69.13
41312;BME280;27061;41.648;24.568;2023-01-29T09:47:59;85713.31;;;1.17;69.95
41312;BME280;27061;41.648;24.568;2023-01-29T09:50:48;85658.28;;;0.87;68.67
41312;BME280;27061;41.648;24.568;2023-01-29T09:58:30;85716.66;;;1.14;71.59
41312;BME280;27061;41.648;24.568;2023-01-29T10:01:23;85706.50;;;1.16;70.52
41312;BME280;27061;41.648;24.568;2023-01-29T10:11:34;85704.59;;;0.87;72.29
41312;BME280;27061;41.648;24.568;2023-01-29T10:16:46;85692.28;;;0.82;72.95
41312;BME280;27061;41.648;24.568;2023-01-29T10:19:40;85693.75;;;0.89;73.53
41312;BME280;27061;41.648;24.568;2023-01-29T10:22:43;85696.41;;;0.85;73.31
41312;BME280;27061;41.648;24.568;2023-01-29T10:25:19;85677.78;;;0.71;71.98
41312;BME280;27061;41.648;24.568;2023-01-29T10:27:49;85667.22;;;0.53;72.87
41312;BME280;27061;41.648;24.568;2023-01-29T10:30:28;85700.34;;;0.78;72.11
41312;BME280;27061;41.648;24.568;2023-01-29T10:33:01;85638.88;;;0.28;74.31
41312;BME280;27061;41.648;24.568;2023-01-29T10:35:38;85658.31;;;0.49;73.50
41312;BME280;27061;41.648;24.568;2023-01-29T10:38:19;85693.34;;;0.66;74.83
41312;BME280;27061;41.648;24.568;2023-01-29T10:43:31;85679.75;;;0.68;74.27
41312;BME280;27061;41.648;24.568;2023-01-29T10:51:37;85677.84;;;0.75;75.85
41312;BME280;27061;41.648;24.568;2023-01-29T10:54:44;85678.56;;;0.78;76.86
41312;BME280;27061;41.648;24.568;2023-01-29T11:00:03;85675.91;;;0.82;75.80
41312;BME280;27061;41.648;24.568;2023-01-29T11:02:36;85637.94;;;0.52;75.56
41312;BME280;27061;41.648;24.568;2023-01-29T11:05:40;85622.78;;;0.43;75.53
41312;BME280;27061;41.648;24.568;2023-01-29T11:08:11;85649.63;;;0.58;76.24
41312;BME280;27061;41.648;24.568;2023-01-29T11:10:48;85603.69;;;0.41;76.00
41312;BME280;27061;41.648;24.568;2023-01-29T11:13:20;85625.06;;;0.56;76.48
41312;BME280;27061;41.648;24.568;2023-01-29T11:15:50;85619.47;;;0.48;74.53
41312;BME280;27061;41.648;24.568;2023-01-29T11:18:18;85639.59;;;0.69;75.02
41312;BME280;27061;41.648;24.568;2023-01-29T11:20:45;85666.53;;;0.91;75.93
41312;BME280;27061;41.648;24.568;2023-01-29T11:23:27;85621.13;;;0.65;74.86
41312;BME280;27061;41.648;24.568;2023-01-29T11:25:55;85658.75;;;0.75;75.48
41312;BME280;27061;41.648;24.568;2023-01-29T11:28:36;85660.19;;;0.78;75.96
41312;BME280;27061;41.648;24.568;2023-01-29T11:31:23;85605.81;;;0.46;75.27
41312;BME280;27061;41.648;24.568;2023-01-29T11:34:00;85652.94;;;0.93;74.84
41312;BME280;27061;41.648;24.568;2023-01-29T11:36:36;85615.63;;;0.61;75.03
41312;BME280;27061;41.648;24.568;2023-01-29T11:39:19;85652.94;;;0.93;75.24
41312;BME280;27061;41.648;24.568;2023-01-29T11:41:59;85647.53;;;0.97;74.09
41312;BME280;27061;41.648;24.568;2023-01-29T11:44:31;85643.38;;;0.92;75.46
41312;BME280;27061;41.648;24.568;2023-01-29T11:47:19;85649.56;;;0.94;75.12
41312;BME280;27061;41.648;24.568;2023-01-29T11:52:18;85649.47;;;0.90;76.16
41312;BME280;27061;41.648;24.568;2023-01-29T11:55:02;85633.56;;;0.77;75.85
41312;BME280;27061;41.648;24.568;2023-01-29T11:57:33;85644.03;;;0.90;75.80
41312;BME280;27061;41.648;24.568;2023-01-29T12:00:05;85644.13;;;0.96;76.05
41312;BME280;27061;41.648;24.568;2023-01-29T12:02:40;85608.94;;;0.68;75.55
41312;BME280;27061;41.648;24.568;2023-01-29T12:05:20;85644.09;;;0.94;75.37
41312;BME280;27061;41.648;24.568;2023-01-29T12:07:53;85640.16;;;1.03;72.90
41312;BME280;27061;41.648;24.568;2023-01-29T12:15:38;85606.13;;;0.64;74.17
41312;BME280;27061;41.648;24.568;2023-01-29T12:21:03;85622.63;;;0.74;74.94
41312;BME280;27061;41.648;24.568;2023-01-29T12:26:35;85628.28;;;0.87;74.44
41312;BME280;27061;41.648;24.568;2023-01-29T12:31:50;85632.53;;;0.94;75.22
41312;BME280;27061;41.648;24.568;2023-01-29T12:34:35;85613.84;;;0.78;76.00
41312;BME280;27061;41.648;24.568;2023-01-29T12:37:25;85643.53;;;1.02;74.49
41312;BME280;27061;41.648;24.568;2023-01-29T12:39:56;85600.84;;;0.74;75.00
41312;BME280;27061;41.648;24.568;2023-01-29T12:42:26;85638.09;;;1.02;73.55
41312;BME280;27061;41.648;24.568;2023-01-29T12:44:57;85636.91;;;1.13;73.76
41312;BME280;27061;41.648;24.568;2023-01-29T12:47:41;85629.88;;;1.00;73.20
41312;BME280;27061;41.648;24.568;2023-01-29T12:50:31;85590.63;;;0.75;72.38
41312;BME280;27061;41.648;24.568;2023-01-29T12:55:56;85580.25;;;0.65;74.08
41312;BME280;27061;41.648;24.568;2023-01-29T12:58:35;85629.34;;;1.09;73.24
41312;BME280;27061;41.648;24.568;2023-01-29T13:01:37;85621.09;;;1.03;73.46
41312;BME280;27061;41.648;24.568;2023-01-29T13:06:50;85591.44;;;0.82;72.08
41312;BME280;27061;41.648;24.568;2023-01-29T13:09:23;85603.72;;;0.83;72.67
41312;BME280;27061;41.648;24.568;2023-01-29T13:11:55;85612.78;;;0.95;72.37
41312;BME280;27061;41.648;24.568;2023-01-29T13:19:52;85640.97;;;1.12;71.07
41312;BME280;27061;41.648;24.568;2023-01-29T13:22:24;85641.63;;;1.10;69.28
41312;BME280;27061;41.648;24.568;2023-01-29T13:24:52;85621.63;;;0.96;70.55
41312;BME280;27061;41.648;24.568;2023-01-29T13:27:32;85607.06;;;0.79;70.79
41312;BME280;27061;41.648;24.568;2023-01-29T13:30:00;85627.31;;;1.10;70.58
41312;BME280;27061;41.648;24.568;2023-01-29T13:32:32;85632.72;;;1.08;71.06
41312;BME280;27061;41.648;24.568;2023-01-29T13:35:12;85548.63;;;0.46;71.91
41312;BME280;27061;41.648;24.568;2023-01-29T13:37:49;85606.00;;;0.98;71.18
41312;BME280;27061;41.648;24.568;2023-01-29T13:40:23;85574.25;;;0.71;70.34
41312;BME280;27061;41.648;24.568;2023-01-29T13:42:52;85628.75;;;1.15;71.11
41312;BME280;27061;41.648;24.568;2023-01-29T13:45:43;85555.00;;;0.61;71.66
41312;BME280;27061;41.648;24.568;2023-01-29T13:48:26;85611.44;;;0.98;70.67
41312;BME280;27061;41.648;24.568;2023-01-29T13:50:55;85598.47;;;0.97;71.09
41312;BME280;27061;41.648;24.568;2023-01-29T13:53:26;85636.38;;;1.23;69.38
41312;BME280;27061;41.648;24.568;2023-01-29T13:55:54;85608.75;;;1.00;70.70
41312;BME280;27061;41.648;24.568;2023-01-29T14:01:00;85646.31;;;1.06;70.31
41312;BME280;27061;41.648;24.568;2023-01-29T14:06:35;85588.44;;;0.63;71.54
41312;BME280;27061;41.648;24.568;2023-01-29T14:11:56;85624.06;;;0.78;72.19
41312;BME280;27061;41.648;24.568;2023-01-29T14:14:49;85642.03;;;0.93;71.03
41312;BME280;27061;41.648;24.568;2023-01-29T14:17:18;85602.75;;;0.66;71.60
41312;BME280;27061;41.648;24.568;2023-01-29T14:19:52;85567.56;;;0.38;72.28
41312;BME280;27061;41.648;24.568;2023-01-29T14:22:21;85616.41;;;0.68;72.26
41312;BME280;27061;41.648;24.568;2023-01-29T14:24:54;85657.13;;;1.00;71.96
41312;BME280;27061;41.648;24.568;2023-01-29T14:27:23;85663.91;;;0.97;71.38
41312;BME280;27061;41.648;24.568;2023-01-29T14:30:07;85613.69;;;0.68;70.91
41312;BME280;27061;41.648;24.568;2023-01-29T14:32:38;85623.94;;;0.69;71.51
41312;BME280;27061;41.648;24.568;2023-01-29T14:35:26;85632.31;;;0.82;72.65
41312;BME280;27061;41.648;24.568;2023-01-29T14:37:56;85680.63;;;0.79;70.67
41312;BME280;27061;41.648;24.568;2023-01-29T14:40:26;85658.28;;;0.87;71.39
41312;BME280;27061;41.648;24.568;2023-01-29T14:43:22;85647.19;;;0.77;72.19
41312;BME280;27061;41.648;24.568;2023-01-29T14:45:49;85603.63;;;0.36;72.30
41312;BME280;27061;41.648;24.568;2023-01-29T14:48:46;85648.44;;;0.69;72.60
41312;BME280;27061;41.648;24.568;2023-01-29T14:51:19;85648.41;;;0.67;72.86
41312;BME280;27061;41.648;24.568;2023-01-29T14:53:57;85669.19;;;0.87;73.01
41312;BME280;27061;41.648;24.568;2023-01-29T14:56:28;85673.22;;;0.84;72.68
41312;BME280;27061;41.648;24.568;2023-01-29T14:59:20;85675.78;;;0.76;72.49
41312;BME280;27061;41.648;24.568;2023-01-29T15:01:54;85666.06;;;0.62;71.31
41312;BME280;27061;41.648;24.568;2023-01-29T15:04:27;85663.47;;;0.70;72.14
41312;BME280;27061;41.648;24.568;2023-01-29T15:07:10;85679.34;;;0.82;72.37
41312;BME280;27061;41.648;24.568;2023-01-29T15:09:51;85693.69;;;0.85;72.35
41312;BME280;27061;41.648;24.568;2023-01-29T15:12:32;85690.88;;;0.81;72.14
41312;BME280;27061;41.648;24.568;2023-01-29T15:15:06;85687.22;;;0.66;71.15
41312;BME280;27061;41.648;24.568;2023-01-29T15:21:03;85669.94;;;0.51;71.92
41312;BME280;27061;41.648;24.568;2023-01-29T15:23:36;85681.06;;;0.65;72.15
41312;BME280;27061;41.648;24.568;2023-01-29T15:26:06;85690.63;;;0.66;71.96
41312;BME280;27061;41.648;24.568;2023-01-29T15:28:34;85694.88;;;0.76;71.54
41312;BME280;27061;41.648;24.568;2023-01-29T15:31:04;85645.06;;;0.31;72.17
41312;BME280;27061;41.648;24.568;2023-01-29T15:33:35;85703.56;;;0.66;72.62
41312;BME280;27061;41.648;24.568;2023-01-29T15:36:05;85660.16;;;0.38;72.87